Folsom, Pennsylvania
Current Conditions -  °F | °C
As of 1:54 PM on Friday 31 Oct 2014 (Local Time) from KPHL Reporting Station
Overcast Overcast  
Wind Chill: 51°   Ceiling: 4000
Heat Index: 51°   Visibility: 10mi
Dew Point: 36°   Wind: 9mph
Humidity: 56%   Direction: 350°N
Pressure: 29.92"   Gusts: NA
Location:  39.89°N, 75.33°W
Report Text: KPHL 311754Z 35008KT 10SM FEW034 OVC040 11/02 A2992 RMK AO2 SLP133 T01060022 10111 20050 58023
Loading
Personal Weather Stations






























Interactive Weather Map New forecast layout! Learn more

10-Day Weather Forecast

Advertisements
Track Severe Weather on mobile